sensor_id;sensor_type;location;lat;lon;timestamp;temperature;humidity
7476;DHT22;3779;49.216;8.650;2023-05-10T00:00:57;22.20;63.70
7476;DHT22;3779;49.216;8.650;2023-05-10T00:03:44;22.20;63.30
7476;DHT22;3779;49.216;8.650;2023-05-10T00:06:40;22.30;63.80
7476;DHT22;3779;49.216;8.650;2023-05-10T00:09:26;22.20;63.60
7476;DHT22;3779;49.216;8.650;2023-05-10T00:12:12;22.20;63.30
7476;DHT22;3779;49.216;8.650;2023-05-10T00:14:59;22.20;63.20
7476;DHT22;3779;49.216;8.650;2023-05-10T00:17:46;22.30;63.30
7476;DHT22;3779;49.216;8.650;2023-05-10T00:20:34;22.20;63.00
7476;DHT22;3779;49.216;8.650;2023-05-10T00:23:20;22.30;63.10
7476;DHT22;3779;49.216;8.650;2023-05-10T00:26:07;22.30;63.00
7476;DHT22;3779;49.216;8.650;2023-05-10T00:28:53;22.30;62.90
7476;DHT22;3779;49.216;8.650;2023-05-10T00:31:44;22.30;62.80
7476;DHT22;3779;49.216;8.650;2023-05-10T00:35:14;22.30;63.10
7476;DHT22;3779;49.216;8.650;2023-05-10T00:38:01;22.30;63.00
7476;DHT22;3779;49.216;8.650;2023-05-10T00:40:50;22.30;63.10
7476;DHT22;3779;49.216;8.650;2023-05-10T00:43:46;22.50;63.20
7476;DHT22;3779;49.216;8.650;2023-05-10T00:46:32;22.30;62.80
7476;DHT22;3779;49.216;8.650;2023-05-10T00:49:19;22.30;62.80
7476;DHT22;3779;49.216;8.650;2023-05-10T00:52:05;22.50;63.00
7476;DHT22;3779;49.216;8.650;2023-05-10T00:54:52;22.40;63.00
7476;DHT22;3779;49.216;8.650;2023-05-10T00:57:38;22.30;62.80
7476;DHT22;3779;49.216;8.650;2023-05-10T01:00:24;22.40;62.70
7476;DHT22;3779;49.216;8.650;2023-05-10T01:03:11;22.30;62.70
7476;DHT22;3779;49.216;8.650;2023-05-10T01:05:58;22.30;62.70
7476;DHT22;3779;49.216;8.650;2023-05-10T01:08:44;22.30;62.30
7476;DHT22;3779;49.216;8.650;2023-05-10T01:11:31;22.30;62.50
7476;DHT22;3779;49.216;8.650;2023-05-10T01:14:18;22.30;62.50
7476;DHT22;3779;49.216;8.650;2023-05-10T01:17:06;22.60;62.90
7476;DHT22;3779;49.216;8.650;2023-05-10T01:19:52;22.20;62.30
7476;DHT22;3779;49.216;8.650;2023-05-10T01:29:11;22.30;62.30
7476;DHT22;3779;49.216;8.650;2023-05-10T01:35:00;22.30;62.10
7476;DHT22;3779;49.216;8.650;2023-05-10T01:41:12;22.30;62.20
7476;DHT22;3779;49.216;8.650;2023-05-10T01:46:58;22.30;62.10
7476;DHT22;3779;49.216;8.650;2023-05-10T01:49:50;22.30;62.10
7476;DHT22;3779;49.216;8.650;2023-05-10T01:52:42;22.30;62.00
7476;DHT22;3779;49.216;8.650;2023-05-10T01:55:34;22.20;62.10
7476;DHT22;3779;49.216;8.650;2023-05-10T01:58:31;22.30;62.00
7476;DHT22;3779;49.216;8.650;2023-05-10T02:01:21;22.30;62.00
7476;DHT22;3779;49.216;8.650;2023-05-10T02:04:08;22.30;62.00
7476;DHT22;3779;49.216;8.650;2023-05-10T02:07:01;22.30;61.90
7476;DHT22;3779;49.216;8.650;2023-05-10T02:09:48;22.30;61.50
7476;DHT22;3779;49.216;8.650;2023-05-10T02:12:41;22.30;61.80
7476;DHT22;3779;49.216;8.650;2023-05-10T02:15:27;22.20;61.80
7476;DHT22;3779;49.216;8.650;2023-05-10T02:18:14;22.20;62.00
7476;DHT22;3779;49.216;8.650;2023-05-10T02:21:02;22.20;61.90
7476;DHT22;3779;49.216;8.650;2023-05-10T02:23:51;22.20;62.00
7476;DHT22;3779;49.216;8.650;2023-05-10T02:26:38;22.30;62.00
7476;DHT22;3779;49.216;8.650;2023-05-10T02:29:25;22.30;61.80
7476;DHT22;3779;49.216;8.650;2023-05-10T02:32:14;22.30;61.80
7476;DHT22;3779;49.216;8.650;2023-05-10T02:35:02;22.30;61.80
7476;DHT22;3779;49.216;8.650;2023-05-10T02:37:50;22.30;61.60
7476;DHT22;3779;49.216;8.650;2023-05-10T02:40:37;22.30;61.70
7476;DHT22;3779;49.216;8.650;2023-05-10T02:43:24;22.30;61.80
7476;DHT22;3779;49.216;8.650;2023-05-10T02:46:11;22.30;61.60
7476;DHT22;3779;49.216;8.650;2023-05-10T02:49:00;22.30;61.40
7476;DHT22;3779;49.216;8.650;2023-05-10T02:51:51;22.30;61.40
7476;DHT22;3779;49.216;8.650;2023-05-10T02:54:45;22.30;61.50
7476;DHT22;3779;49.216;8.650;2023-05-10T02:57:35;22.30;61.70
7476;DHT22;3779;49.216;8.650;2023-05-10T03:00:25;22.30;61.60
7476;DHT22;3779;49.216;8.650;2023-05-10T03:03:11;22.30;61.60
7476;DHT22;3779;49.216;8.650;2023-05-10T03:06:42;22.20;61.60
7476;DHT22;3779;49.216;8.650;2023-05-10T03:09:28;22.20;61.80
7476;DHT22;3779;49.216;8.650;2023-05-10T03:12:37;22.20;61.70
7476;DHT22;3779;49.216;8.650;2023-05-10T03:21:33;22.20;61.70
7476;DHT22;3779;49.216;8.650;2023-05-10T03:24:27;22.50;62.00
7476;DHT22;3779;49.216;8.650;2023-05-10T03:27:15;22.20;61.70
7476;DHT22;3779;49.216;8.650;2023-05-10T03:30:23;22.30;61.80
7476;DHT22;3779;49.216;8.650;2023-05-10T03:33:19;22.30;61.80
7476;DHT22;3779;49.216;8.650;2023-05-10T03:36:06;22.50;61.50
7476;DHT22;3779;49.216;8.650;2023-05-10T03:38:55;22.20;61.40
7476;DHT22;3779;49.216;8.650;2023-05-10T03:41:41;22.30;61.40
7476;DHT22;3779;49.216;8.650;2023-05-10T03:44:28;22.30;61.20
7476;DHT22;3779;49.216;8.650;2023-05-10T03:47:17;22.30;61.30
7476;DHT22;3779;49.216;8.650;2023-05-10T03:50:20;22.30;61.30
7476;DHT22;3779;49.216;8.650;2023-05-10T03:53:34;22.20;61.40
7476;DHT22;3779;49.216;8.650;2023-05-10T03:56:22;22.20;61.30
7476;DHT22;3779;49.216;8.650;2023-05-10T03:59:09;22.20;61.00
7476;DHT22;3779;49.216;8.650;2023-05-10T04:01:58;22.30;61.30
7476;DHT22;3779;49.216;8.650;2023-05-10T04:04:51;22.20;61.20
7476;DHT22;3779;49.216;8.650;2023-05-10T04:07:40;22.20;61.40
7476;DHT22;3779;49.216;8.650;2023-05-10T04:10:26;22.30;60.70
7476;DHT22;3779;49.216;8.650;2023-05-10T04:13:12;22.20;61.00
7476;DHT22;3779;49.216;8.650;2023-05-10T04:15:58;22.20;61.00
7476;DHT22;3779;49.216;8.650;2023-05-10T04:18:44;22.20;61.20
7476;DHT22;3779;49.216;8.650;2023-05-10T04:21:32;22.20;61.30
7476;DHT22;3779;49.216;8.650;2023-05-10T04:24:17;22.50;61.60
7476;DHT22;3779;49.216;8.650;2023-05-10T04:27:03;22.20;61.10
7476;DHT22;3779;49.216;8.650;2023-05-10T04:29:52;22.20;61.20
7476;DHT22;3779;49.216;8.650;2023-05-10T04:32:40;22.20;61.30
7476;DHT22;3779;49.216;8.650;2023-05-10T04:35:26;22.20;61.10
7476;DHT22;3779;49.216;8.650;2023-05-10T04:38:12;22.20;61.10
7476;DHT22;3779;49.216;8.650;2023-05-10T04:41:04;22.20;61.30
7476;DHT22;3779;49.216;8.650;2023-05-10T04:43:52;22.30;61.30
7476;DHT22;3779;49.216;8.650;2023-05-10T04:46:40;22.20;61.30
7476;DHT22;3779;49.216;8.650;2023-05-10T04:49:26;22.10;61.00
7476;DHT22;3779;49.216;8.650;2023-05-10T04:52:11;22.20;61.10
7476;DHT22;3779;49.216;8.650;2023-05-10T05:04:00;22.20;61.40
7476;DHT22;3779;49.216;8.650;2023-05-10T05:06:48;22.10;61.30
7476;DHT22;3779;49.216;8.650;2023-05-10T05:09:37;22.10;61.20
7476;DHT22;3779;49.216;8.650;2023-05-10T05:12:23;22.20;61.20
7476;DHT22;3779;49.216;8.650;2023-05-10T05:15:09;22.20;61.10
7476;DHT22;3779;49.216;8.650;2023-05-10T05:18:04;22.20;61.00
7476;DHT22;3779;49.216;8.650;2023-05-10T05:26:00;22.20;61.30
7476;DHT22;3779;49.216;8.650;2023-05-10T16:37:45;22.10;56.50
7476;DHT22;3779;49.216;8.650;2023-05-10T16:41:00;22.00;57.10
7476;DHT22;3779;49.216;8.650;2023-05-10T16:44:23;22.00;57.50
7476;DHT22;3779;49.216;8.650;2023-05-10T16:53:41;22.10;57.10
7476;DHT22;3779;49.216;8.650;2023-05-10T16:57:07;22.10;57.20
7476;DHT22;3779;49.216;8.650;2023-05-10T16:59:53;22.30;57.20
7476;DHT22;3779;49.216;8.650;2023-05-10T17:02:39;22.10;57.00
7476;DHT22;3779;49.216;8.650;2023-05-10T17:05:37;22.00;57.20
7476;DHT22;3779;49.216;8.650;2023-05-10T17:08:52;22.00;57.10
